sensor_id;sensor_type;location;lat;lon;timestamp;pressure;altitude;pressure_sealevel;temperature;humidity
40954;BME280;26686;50.130;8.710;2023-03-22T00:02:21;99919.09;;;10.81;89.57
40954;BME280;26686;50.130;8.710;2023-03-22T00:07:23;99910.97;;;10.82;89.61
40954;BME280;26686;50.130;8.710;2023-03-22T00:12:25;99905.63;;;10.82;89.47
40954;BME280;26686;50.130;8.710;2023-03-22T00:17:26;99903.97;;;10.81;89.21
40954;BME280;26686;50.130;8.710;2023-03-22T00:22:28;99888.25;;;10.78;88.71
40954;BME280;26686;50.130;8.710;2023-03-22T00:27:30;99895.97;;;10.81;88.20
40954;BME280;26686;50.130;8.710;2023-03-22T00:32:34;99888.56;;;10.85;87.87
40954;BME280;26686;50.130;8.710;2023-03-22T00:37:36;99883.78;;;10.88;86.85
40954;BME280;26686;50.130;8.710;2023-03-22T00:42:41;99878.47;;;10.88;86.25
40954;BME280;26686;50.130;8.710;2023-03-22T00:47:44;99877.78;;;10.86;85.60
40954;BME280;26686;50.130;8.710;2023-03-22T00:52:46;99879.19;;;10.90;85.37
40954;BME280;26686;50.130;8.710;2023-03-22T00:57:47;99869.78;;;10.86;85.02
40954;BME280;26686;50.130;8.710;2023-03-22T01:02:49;99868.09;;;10.85;84.88
40954;BME280;26686;50.130;8.710;2023-03-22T01:07:54;99862.91;;;10.84;84.62
40954;BME280;26686;50.130;8.710;2023-03-22T01:12:55;99857.72;;;10.82;84.70
40954;BME280;26686;50.130;8.710;2023-03-22T01:17:57;99863.31;;;10.79;84.54
40954;BME280;26686;50.130;8.710;2023-03-22T01:22:59;99858.25;;;10.76;85.03
40954;BME280;26686;50.130;8.710;2023-03-22T01:28:01;99870.31;;;10.80;84.52
40954;BME280;26686;50.130;8.710;2023-03-22T01:33:03;99844.66;;;10.79;84.26
40954;BME280;26686;50.130;8.710;2023-03-22T01:38:06;99843.97;;;10.77;84.02
40954;BME280;26686;50.130;8.710;2023-03-22T01:43:15;99854.34;;;10.80;83.62
40954;BME280;26686;50.130;8.710;2023-03-22T01:53:24;99845.66;;;10.78;83.04
40954;BME280;26686;50.130;8.710;2023-03-22T01:58:27;99839.63;;;10.76;83.21
40954;BME280;26686;50.130;8.710;2023-03-22T02:03:37;99838.09;;;10.83;83.03
40954;BME280;26686;50.130;8.710;2023-03-22T02:08:43;99819.47;;;10.83;82.50
40954;BME280;26686;50.130;8.710;2023-03-22T02:19:04;99816.53;;;10.86;82.32
40954;BME280;26686;50.130;8.710;2023-03-22T02:24:37;99806.16;;;10.83;82.37
40954;BME280;26686;50.130;8.710;2023-03-22T02:29:52;99812.03;;;10.77;82.12
40954;BME280;26686;50.130;8.710;2023-03-22T02:35:17;99819.03;;;10.78;82.14
40954;BME280;26686;50.130;8.710;2023-03-22T02:45:51;99807.78;;;10.65;83.13
40954;BME280;26686;50.130;8.710;2023-03-22T02:50:59;99815.03;;;10.63;83.17
40954;BME280;26686;50.130;8.710;2023-03-22T02:56:19;99804.25;;;10.54;83.82
40954;BME280;26686;50.130;8.710;2023-03-22T03:01:27;99805.75;;;10.47;83.73
40954;BME280;26686;50.130;8.710;2023-03-22T03:06:33;99812.72;;;10.38;84.21
40954;BME280;26686;50.130;8.710;2023-03-22T03:11:39;99804.31;;;10.33;84.24
40954;BME280;26686;50.130;8.710;2023-03-22T03:16:41;99803.41;;;10.33;84.46
40954;BME280;26686;50.130;8.710;2023-03-22T03:32:31;99796.41;;;10.32;84.39
40954;BME280;26686;50.130;8.710;2023-03-22T03:37:40;99788.56;;;10.30;84.81
40954;BME280;26686;50.130;8.710;2023-03-22T03:42:49;99783.66;;;10.25;84.57
40954;BME280;26686;50.130;8.710;2023-03-22T03:47:54;99778.00;;;10.19;84.93
40954;BME280;26686;50.130;8.710;2023-03-22T03:52:57;99778.72;;;10.21;84.71
40954;BME280;26686;50.130;8.710;2023-03-22T03:58:00;99772.81;;;10.17;84.43
40954;BME280;26686;50.130;8.710;2023-03-22T04:03:03;99776.44;;;10.16;84.41
40954;BME280;26686;50.130;8.710;2023-03-22T04:08:05;99771.78;;;10.08;84.64
40954;BME280;26686;50.130;8.710;2023-03-22T04:13:06;99771.53;;;10.12;84.67
40954;BME280;26686;50.130;8.710;2023-03-22T04:18:08;99763.16;;;10.16;84.65
40954;BME280;26686;50.130;8.710;2023-03-22T04:23:11;99772.56;;;10.20;84.24
40954;BME280;26686;50.130;8.710;2023-03-22T04:28:12;99753.50;;;10.15;84.44
40954;BME280;26686;50.130;8.710;2023-03-22T04:33:14;99751.81;;;10.14;84.18
40954;BME280;26686;50.130;8.710;2023-03-22T04:38:15;99737.53;;;10.15;84.40
40954;BME280;26686;50.130;8.710;2023-03-22T04:43:19;99727.75;;;10.16;83.92
40954;BME280;26686;50.130;8.710;2023-03-22T04:48:21;99736.88;;;10.23;83.96
40954;BME280;26686;50.130;8.710;2023-03-22T04:53:24;99736.03;;;10.22;83.56
40954;BME280;26686;50.130;8.710;2023-03-22T04:58:27;99740.78;;;10.19;84.16
40954;BME280;26686;50.130;8.710;2023-03-22T05:03:29;99733.31;;;10.13;83.93
40954;BME280;26686;50.130;8.710;2023-03-22T05:08:31;99737.09;;;10.10;84.18
40954;BME280;26686;50.130;8.710;2023-03-22T05:13:34;99735.97;;;10.03;84.58
40954;BME280;26686;50.130;8.710;2023-03-22T05:18:36;99744.19;;;10.00;84.68
40954;BME280;26686;50.130;8.710;2023-03-22T05:23:43;99739.84;;;9.99;84.99
40954;BME280;26686;50.130;8.710;2023-03-22T05:28:45;99737.72;;;9.93;85.28
40954;BME280;26686;50.130;8.710;2023-03-22T05:33:48;99744.97;;;9.90;85.09
40954;BME280;26686;50.130;8.710;2023-03-22T05:38:51;99748.63;;;9.89;85.19
40954;BME280;26686;50.130;8.710;2023-03-22T05:43:53;99751.34;;;9.78;85.98
40954;BME280;26686;50.130;8.710;2023-03-22T05:48:56;99751.06;;;9.81;86.16
40954;BME280;26686;50.130;8.710;2023-03-22T05:53:57;99752.78;;;9.82;86.04
40954;BME280;26686;50.130;8.710;2023-03-22T05:58:59;99762.44;;;9.83;86.26
40954;BME280;26686;50.130;8.710;2023-03-22T06:04:00;99758.78;;;9.84;86.33
40954;BME280;26686;50.130;8.710;2023-03-22T06:09:02;99749.03;;;9.85;86.15
40954;BME280;26686;50.130;8.710;2023-03-22T06:14:17;99752.94;;;9.90;85.82
40954;BME280;26686;50.130;8.710;2023-03-22T06:19:18;99739.13;;;9.97;85.75
40954;BME280;26686;50.130;8.710;2023-03-22T06:24:21;99747.03;;;10.08;85.69
40954;BME280;26686;50.130;8.710;2023-03-22T06:29:23;99756.91;;;10.27;85.31
40954;BME280;26686;50.130;8.710;2023-03-22T06:34:25;99761.31;;;10.38;84.85
40954;BME280;26686;50.130;8.710;2023-03-22T06:39:27;99759.22;;;10.41;83.90
40954;BME280;26686;50.130;8.710;2023-03-22T06:44:28;99772.72;;;10.50;83.60
40954;BME280;26686;50.130;8.710;2023-03-22T06:49:30;99779.06;;;10.58;82.77
40954;BME280;26686;50.130;8.710;2023-03-22T06:54:32;99769.53;;;10.66;82.28
40954;BME280;26686;50.130;8.710;2023-03-22T06:59:35;99775.31;;;10.71;81.98
40954;BME280;26686;50.130;8.710;2023-03-22T07:04:37;99776.44;;;10.78;81.14
40954;BME280;26686;50.130;8.710;2023-03-22T07:09:39;99773.97;;;10.96;80.69
40954;BME280;26686;50.130;8.710;2023-03-22T07:14:40;99780.97;;;11.07;80.48
40954;BME280;26686;50.130;8.710;2023-03-22T07:19:42;99772.44;;;11.32;79.34
40954;BME280;26686;50.130;8.710;2023-03-22T07:24:43;99782.94;;;11.54;78.80
40954;BME280;26686;50.130;8.710;2023-03-22T07:29:57;99770.59;;;11.62;78.07
40954;BME280;26686;50.130;8.710;2023-03-22T07:35:00;99765.53;;;11.69;80.17
40954;BME280;26686;50.130;8.710;2023-03-22T07:40:01;99763.84;;;11.78;77.41
40954;BME280;26686;50.130;8.710;2023-03-22T07:45:05;99765.94;;;11.84;76.66
40954;BME280;26686;50.130;8.710;2023-03-22T07:50:09;99764.38;;;11.91;75.90
40954;BME280;26686;50.130;8.710;2023-03-22T07:55:15;99753.09;;;12.17;75.36
40954;BME280;26686;50.130;8.710;2023-03-22T08:00:18;99759.00;;;12.11;74.85
40954;BME280;26686;50.130;8.710;2023-03-22T08:05:19;99745.91;;;12.27;74.89
40954;BME280;26686;50.130;8.710;2023-03-22T08:10:23;99747.38;;;12.40;74.62
40954;BME280;26686;50.130;8.710;2023-03-22T08:15:24;99758.56;;;12.53;73.80
40954;BME280;26686;50.130;8.710;2023-03-22T08:20:26;99755.78;;;12.72;73.09
40954;BME280;26686;50.130;8.710;2023-03-22T08:25:28;99748.19;;;12.78;72.99
40954;BME280;26686;50.130;8.710;2023-03-22T08:30:30;99751.16;;;12.75;72.78
40954;BME280;26686;50.130;8.710;2023-03-22T08:35:32;99755.44;;;13.03;72.49
40954;BME280;26686;50.130;8.710;2023-03-22T08:40:34;99751.34;;;13.27;71.45
40954;BME280;26686;50.130;8.710;2023-03-22T08:45:36;99748.50;;;13.29;71.57
40954;BME280;26686;50.130;8.710;2023-03-22T08:50:38;99750.88;;;13.68;69.81
40954;BME280;26686;50.130;8.710;2023-03-22T08:55:42;99741.94;;;13.85;69.34
40954;BME280;26686;50.130;8.710;2023-03-22T09:00:45;99732.88;;;14.04;66.92
40954;BME280;26686;50.130;8.710;2023-03-22T09:05:50;99726.84;;;14.02;65.59
40954;BME280;26686;50.130;8.710;2023-03-22T09:10:52;99721.00;;;14.41;64.72
40954;BME280;26686;50.130;8.710;2023-03-22T09:15:55;99724.56;;;15.26;63.54
40954;BME280;26686;50.130;8.710;2023-03-22T09:20:57;99721.88;;;15.42;60.44
40954;BME280;26686;50.130;8.710;2023-03-22T09:26:00;99710.47;;;14.99;60.26
40954;BME280;26686;50.130;8.710;2023-03-22T09:31:08;99713.97;;;14.91;60.75
40954;BME280;26686;50.130;8.710;2023-03-22T09:36:10;99703.59;;;15.05;59.69
40954;BME280;26686;50.130;8.710;2023-03-22T09:41:28;99698.75;;;15.25;58.71
40954;BME280;26686;50.130;8.710;2023-03-22T09:46:38;99701.22;;;15.92;56.82
40954;BME280;26686;50.130;8.710;2023-03-22T09:51:51;99680.97;;;15.65;56.16
40954;BME280;26686;50.130;8.710;2023-03-22T09:57:24;99675.06;;;15.86;55.52
40954;BME280;26686;50.130;8.710;2023-03-22T10:02:34;99675.94;;;15.53;56.37
40954;BME280;26686;50.130;8.710;2023-03-22T10:18:04;99666.25;;;15.19;56.89
40954;BME280;26686;50.130;8.710;2023-03-22T10:23:13;99656.53;;;15.02;57.00
40954;BME280;26686;50.130;8.710;2023-03-22T10:28:23;99672.78;;;14.92;56.16
40954;BME280;26686;50.130;8.710;2023-03-22T10:33:40;99658.41;;;15.99;52.76
40954;BME280;26686;50.130;8.710;2023-03-22T10:39:09;99657.13;;;15.70;53.57
40954;BME280;26686;50.130;8.710;2023-03-22T10:44:17;99643.22;;;17.08;49.91
40954;BME280;26686;50.130;8.710;2023-03-22T10:49:30;99650.41;;;17.99;46.71
40954;BME280;26686;50.130;8.710;2023-03-22T10:54:35;99652.19;;;18.80;45.90
40954;BME280;26686;50.130;8.710;2023-03-22T10:59:43;99645.97;;;20.69;39.92
40954;BME280;26686;50.130;8.710;2023-03-22T11:04:47;99637.38;;;19.12;42.78
40954;BME280;26686;50.130;8.710;2023-03-22T11:09:57;99649.94;;;17.95;46.36
40954;BME280;26686;50.130;8.710;2023-03-22T11:14:59;99639.88;;;19.14;43.49
40954;BME280;26686;50.130;8.710;2023-03-22T11:20:03;99632.31;;;23.32;36.00
40954;BME280;26686;50.130;8.710;2023-03-22T11:25:16;99627.78;;;25.28;32.47
40954;BME280;26686;50.130;8.710;2023-03-22T11:30:26;99626.50;;;25.54;31.80
40954;BME280;26686;50.130;8.710;2023-03-22T11:35:29;99607.09;;;27.36;28.09
40954;BME280;26686;50.130;8.710;2023-03-22T11:40:34;99599.31;;;29.15;26.01
40954;BME280;26686;50.130;8.710;2023-03-22T11:45:40;99614.28;;;27.08;27.77
40954;BME280;26686;50.130;8.710;2023-03-22T11:50:43;99580.72;;;28.57;26.45
40954;BME280;26686;50.130;8.710;2023-03-22T11:55:47;99578.28;;;28.33;26.82
40954;BME280;26686;50.130;8.710;2023-03-22T12:00:50;99574.53;;;28.67;25.44
40954;BME280;26686;50.130;8.710;2023-03-22T12:05:53;99560.25;;;28.92;24.35
40954;BME280;26686;50.130;8.710;2023-03-22T12:11:02;99558.94;;;27.51;26.53
40954;BME280;26686;50.130;8.710;2023-03-22T12:16:06;99557.09;;;26.67;27.52
40954;BME280;26686;50.130;8.710;2023-03-22T12:21:09;99560.06;;;28.17;26.55
40954;BME280;26686;50.130;8.710;2023-03-22T12:26:16;99554.19;;;30.95;22.35
40954;BME280;26686;50.130;8.710;2023-03-22T12:31:22;99584.44;;;30.90;21.95
40954;BME280;26686;50.130;8.710;2023-03-22T12:36:34;99554.75;;;29.77;23.25
40954;BME280;26686;50.130;8.710;2023-03-22T12:41:42;99553.00;;;30.14;23.27
40954;BME280;26686;50.130;8.710;2023-03-22T12:46:57;99547.63;;;29.23;24.04
40954;BME280;26686;50.130;8.710;2023-03-22T12:52:12;99537.16;;;29.20;22.63
40954;BME280;26686;50.130;8.710;2023-03-22T12:57:15;99520.81;;;28.93;22.73
40954;BME280;26686;50.130;8.710;2023-03-22T13:02:23;99529.72;;;29.53;22.62
40954;BME280;26686;50.130;8.710;2023-03-22T13:12:33;99503.31;;;28.07;23.83
40954;BME280;26686;50.130;8.710;2023-03-22T13:17:43;99511.34;;;28.46;23.94
40954;BME280;26686;50.130;8.710;2023-03-22T13:27:52;99498.44;;;27.43;25.31
40954;BME280;26686;50.130;8.710;2023-03-22T13:33:12;99489.63;;;28.07;24.76
40954;BME280;26686;50.130;8.710;2023-03-22T13:38:18;99488.88;;;28.39;23.48
40954;BME280;26686;50.130;8.710;2023-03-22T13:43:22;99471.88;;;26.65;26.10
40954;BME280;26686;50.130;8.710;2023-03-22T13:54:01;99474.25;;;23.79;29.81
40954;BME280;26686;50.130;8.710;2023-03-22T13:59:09;99472.16;;;23.62;29.88
40954;BME280;26686;50.130;8.710;2023-03-22T14:04:15;99464.13;;;22.68;30.75
40954;BME280;26686;50.130;8.710;2023-03-22T14:09:28;99469.09;;;22.14;31.61
40954;BME280;26686;50.130;8.710;2023-03-22T14:14:35;99470.66;;;21.65;33.15
40954;BME280;26686;50.130;8.710;2023-03-22T14:19:40;99472.00;;;21.29;34.69
40954;BME280;26686;50.130;8.710;2023-03-22T14:24:43;99478.28;;;21.09;34.14
40954;BME280;26686;50.130;8.710;2023-03-22T14:29:46;99467.91;;;20.73;33.90
40954;BME280;26686;50.130;8.710;2023-03-22T14:34:50;99455.41;;;20.25;35.41
40954;BME280;26686;50.130;8.710;2023-03-22T14:39:51;99448.31;;;20.04;35.92
40954;BME280;26686;50.130;8.710;2023-03-22T14:44:54;99459.94;;;19.98;36.27
40954;BME280;26686;50.130;8.710;2023-03-22T14:49:56;99450.72;;;19.78;37.21
40954;BME280;26686;50.130;8.710;2023-03-22T14:54:59;99456.44;;;19.49;37.79
40954;BME280;26686;50.130;8.710;2023-03-22T15:00:03;99452.66;;;19.43;38.45
40954;BME280;26686;50.130;8.710;2023-03-22T15:05:18;99427.16;;;19.11;39.00
40954;BME280;26686;50.130;8.710;2023-03-22T15:10:22;99442.47;;;19.03;39.72
40954;BME280;26686;50.130;8.710;2023-03-22T15:15:33;99448.94;;;19.09;39.83
40954;BME280;26686;50.130;8.710;2023-03-22T15:20:35;99444.94;;;18.98;39.72
40954;BME280;26686;50.130;8.710;2023-03-22T15:25:37;99443.13;;;18.77;39.66
40954;BME280;26686;50.130;8.710;2023-03-22T15:30:44;99433.53;;;18.68;40.28
40954;BME280;26686;50.130;8.710;2023-03-22T15:35:46;99443.03;;;18.64;39.09
40954;BME280;26686;50.130;8.710;2023-03-22T15:40:47;99450.25;;;18.35;40.02
40954;BME280;26686;50.130;8.710;2023-03-22T15:51:13;99441.59;;;17.96;41.47
40954;BME280;26686;50.130;8.710;2023-03-22T15:56:38;99442.38;;;17.90;41.92
40954;BME280;26686;50.130;8.710;2023-03-22T16:01:43;99445.41;;;17.87;42.08
40954;BME280;26686;50.130;8.710;2023-03-22T16:06:44;99442.56;;;17.74;42.74
40954;BME280;26686;50.130;8.710;2023-03-22T16:11:44;99446.03;;;17.67;43.19
40954;BME280;26686;50.130;8.710;2023-03-22T16:16:46;99451.88;;;17.56;44.00
40954;BME280;26686;50.130;8.710;2023-03-22T16:21:47;99451.88;;;17.56;44.00
40954;BME280;26686;50.130;8.710;2023-03-22T16:26:47;99460.44;;;17.45;44.52
40954;BME280;26686;50.130;8.710;2023-03-22T16:31:48;99460.16;;;17.40;44.76
40954;BME280;26686;50.130;8.710;2023-03-22T16:36:48;99442.47;;;17.30;44.65
40954;BME280;26686;50.130;8.710;2023-03-22T16:41:49;99450.09;;;17.12;44.78
40954;BME280;26686;50.130;8.710;2023-03-22T16:46:49;99465.66;;;17.02;45.28
40954;BME280;26686;50.130;8.710;2023-03-22T16:51:50;99448.22;;;16.98;45.18
40954;BME280;26686;50.130;8.710;2023-03-22T16:56:50;99456.56;;;17.03;45.42
40954;BME280;26686;50.130;8.710;2023-03-22T17:01:51;99456.94;;;17.00;45.49
40954;BME280;26686;50.130;8.710;2023-03-22T17:06:51;99461.38;;;16.92;45.54
40954;BME280;26686;50.130;8.710;2023-03-22T17:11:51;99456.56;;;16.88;45.84
40954;BME280;26686;50.130;8.710;2023-03-22T17:16:52;99456.38;;;16.89;45.94
40954;BME280;26686;50.130;8.710;2023-03-22T17:21:52;99453.34;;;16.84;46.07
40954;BME280;26686;50.130;8.710;2023-03-22T17:26:53;99459.47;;;16.78;46.35
40954;BME280;26686;50.130;8.710;2023-03-22T17:31:54;99469.75;;;16.74;46.30
40954;BME280;26686;50.130;8.710;2023-03-22T17:36:55;99488.84;;;16.79;46.32
40954;BME280;26686;50.130;8.710;2023-03-22T17:41:55;99487.75;;;16.74;46.15
40954;BME280;26686;50.130;8.710;2023-03-22T17:46:56;99490.06;;;16.77;46.34
40954;BME280;26686;50.130;8.710;2023-03-22T17:51:56;99484.22;;;16.73;46.62
40954;BME280;26686;50.130;8.710;2023-03-22T17:56:57;99483.25;;;16.66;46.53
40954;BME280;26686;50.130;8.710;2023-03-22T18:01:57;99479.09;;;16.64;46.62
40954;BME280;26686;50.130;8.710;2023-03-22T18:06:59;99467.03;;;16.59;46.85
40954;BME280;26686;50.130;8.710;2023-03-22T18:12:00;99469.91;;;16.58;47.04
40954;BME280;26686;50.130;8.710;2023-03-22T18:17:01;99478.03;;;16.50;46.91
40954;BME280;26686;50.130;8.710;2023-03-22T18:22:03;99475.25;;;16.43;47.21
40954;BME280;26686;50.130;8.710;2023-03-22T18:27:03;99478.66;;;16.37;47.67
40954;BME280;26686;50.130;8.710;2023-03-22T18:32:05;99484.56;;;16.32;47.94
40954;BME280;26686;50.130;8.710;2023-03-22T18:37:06;99481.56;;;16.27;47.94
40954;BME280;26686;50.130;8.710;2023-03-22T18:42:08;99483.59;;;16.25;47.84
40954;BME280;26686;50.130;8.710;2023-03-22T18:47:09;99484.97;;;16.21;47.88
40954;BME280;26686;50.130;8.710;2023-03-22T18:52:14;99472.75;;;16.18;47.35
40954;BME280;26686;50.130;8.710;2023-03-22T18:57:17;99470.41;;;16.15;46.38
40954;BME280;26686;50.130;8.710;2023-03-22T19:02:17;99469.13;;;16.11;45.58
40954;BME280;26686;50.130;8.710;2023-03-22T19:07:18;99470.31;;;16.08;43.56
40954;BME280;26686;50.130;8.710;2023-03-22T19:12:19;99466.84;;;16.00;42.48
40954;BME280;26686;50.130;8.710;2023-03-22T19:17:20;99473.88;;;16.01;42.25
40954;BME280;26686;50.130;8.710;2023-03-22T19:22:21;99479.91;;;16.03;41.52
40954;BME280;26686;50.130;8.710;2023-03-22T19:27:22;99471.84;;;16.03;41.59
40954;BME280;26686;50.130;8.710;2023-03-22T19:32:22;99466.84;;;16.00;41.98
40954;BME280;26686;50.130;8.710;2023-03-22T19:37:24;99454.25;;;16.00;41.96
40954;BME280;26686;50.130;8.710;2023-03-22T19:42:25;99456.59;;;16.03;41.87
40954;BME280;26686;50.130;8.710;2023-03-22T19:47:25;99440.00;;;16.00;42.51
40954;BME280;26686;50.130;8.710;2023-03-22T19:52:27;99434.97;;;15.97;42.57
40954;BME280;26686;50.130;8.710;2023-03-22T19:57:27;99435.63;;;15.99;43.14
40954;BME280;26686;50.130;8.710;2023-03-22T20:02:28;99438.50;;;15.97;43.04
40954;BME280;26686;50.130;8.710;2023-03-22T20:07:29;99436.34;;;15.93;43.40
40954;BME280;26686;50.130;8.710;2023-03-22T20:12:29;99435.06;;;15.88;43.72
40954;BME280;26686;50.130;8.710;2023-03-22T20:17:30;99443.09;;;15.88;43.66
40954;BME280;26686;50.130;8.710;2023-03-22T20:22:34;99432.91;;;15.84;43.77
40954;BME280;26686;50.130;8.710;2023-03-22T20:27:35;99427.72;;;15.82;43.45
40954;BME280;26686;50.130;8.710;2023-03-22T20:32:38;99418.16;;;15.80;43.84
40954;BME280;26686;50.130;8.710;2023-03-22T20:37:41;99420.16;;;15.78;43.53
40954;BME280;26686;50.130;8.710;2023-03-22T20:42:41;99420.31;;;15.76;43.58
40954;BME280;26686;50.130;8.710;2023-03-22T20:47:43;99412.63;;;15.73;43.25
40954;BME280;26686;50.130;8.710;2023-03-22T20:52:46;99411.34;;;15.69;43.69
40954;BME280;26686;50.130;8.710;2023-03-22T20:57:47;99414.53;;;15.64;43.19
40954;BME280;26686;50.130;8.710;2023-03-22T21:02:48;99405.19;;;15.60;43.36
40954;BME280;26686;50.130;8.710;2023-03-22T21:07:50;99405.72;;;15.55;43.44
40954;BME280;26686;50.130;8.710;2023-03-22T21:12:51;99400.69;;;15.52;43.13
40954;BME280;26686;50.130;8.710;2023-03-22T21:17:52;99405.72;;;15.55;43.77
40954;BME280;26686;50.130;8.710;2023-03-22T21:22:54;99403.56;;;15.51;43.86
40954;BME280;26686;50.130;8.710;2023-03-22T21:27:54;99406.41;;;15.49;43.98
40954;BME280;26686;50.130;8.710;2023-03-22T21:32:55;99403.91;;;15.48;44.42
40954;BME280;26686;50.130;8.710;2023-03-22T21:37:55;99388.50;;;15.42;44.29
40954;BME280;26686;50.130;8.710;2023-03-22T21:42:57;99390.34;;;15.41;44.68
40954;BME280;26686;50.130;8.710;2023-03-22T21:47:57;99387.03;;;15.39;44.61
40954;BME280;26686;50.130;8.710;2023-03-22T21:52:58;99385.88;;;15.33;44.74
40954;BME280;26686;50.130;8.710;2023-03-22T21:57:59;99391.25;;;15.33;44.85
40954;BME280;26686;50.130;8.710;2023-03-22T22:02:59;99388.22;;;15.36;44.63
40954;BME280;26686;50.130;8.710;2023-03-22T22:08:01;99384.53;;;15.37;44.77
40954;BME280;26686;50.130;8.710;2023-03-22T22:13:03;99378.97;;;15.39;44.89
40954;BME280;26686;50.130;8.710;2023-03-22T22:18:03;99379.81;;;15.40;44.97
40954;BME280;26686;50.130;8.710;2023-03-22T22:23:05;99377.78;;;15.42;44.42
40954;BME280;26686;50.130;8.710;2023-03-22T22:28:07;99375.59;;;15.45;44.51
40954;BME280;26686;50.130;8.710;2023-03-22T22:33:11;99381.13;;;15.44;44.51
40954;BME280;26686;50.130;8.710;2023-03-22T22:38:12;99368.38;;;15.46;44.45
40954;BME280;26686;50.130;8.710;2023-03-22T22:43:12;99359.84;;;15.42;44.26
40954;BME280;26686;50.130;8.710;2023-03-22T22:48:13;99351.81;;;15.42;44.58
40954;BME280;26686;50.130;8.710;2023-03-22T22:53:13;99341.78;;;15.36;44.64
40954;BME280;26686;50.130;8.710;2023-03-22T22:58:14;99329.56;;;15.33;44.52
40954;BME280;26686;50.130;8.710;2023-03-22T23:03:15;99335.09;;;15.32;44.64
40954;BME280;26686;50.130;8.710;2023-03-22T23:08:15;99333.78;;;15.28;44.69
40954;BME280;26686;50.130;8.710;2023-03-22T23:13:19;99326.41;;;15.30;45.01
40954;BME280;26686;50.130;8.710;2023-03-22T23:18:20;99330.47;;;15.26;44.65
40954;BME280;26686;50.130;8.710;2023-03-22T23:23:27;99317.69;;;15.28;45.20
40954;BME280;26686;50.130;8.710;2023-03-22T23:28:28;99310.97;;;15.32;45.22
40954;BME280;26686;50.130;8.710;2023-03-22T23:33:34;99323.06;;;15.28;45.34
40954;BME280;26686;50.130;8.710;2023-03-22T23:38:36;99311.00;;;15.24;45.48
40954;BME280;26686;50.130;8.710;2023-03-22T23:43:36;99310.53;;;15.20;45.71
40954;BME280;26686;50.130;8.710;2023-03-22T23:48:37;99315.56;;;15.23;46.04
40954;BME280;26686;50.130;8.710;2023-03-22T23:53:37;99301.00;;;15.17;46.26
40954;BME280;26686;50.130;8.710;2023-03-22T23:58:40;99299.72;;;15.13;46.65
